Time;durP1;ratioP1;P1;durP2;ratioP2;P2;SDS_P1;SDS_P2;PMS_P1;PMS_P2;Temp;Humidity;BMP_temperature;BMP_pressure;BME280_temperature;BME280_humidity;BME280_pressure;Samples;Min_cycle;Max_cycle;Signal;HPM_P1;HPM_P2
2021/06/06 00:00:27;;;;;;;17.50;10.65;;;;;21.20;102228.00;;;;5100977;28;20195;-76
2021/06/06 00:02:55;;;;;;;17.13;10.88;;;;;21.20;102228.00;;;;5102860;28;20522;-76
2021/06/06 00:05:28;;;;;;;19.00;11.23;;;;;21.20;102231.00;;;;5108821;28;20205;-75
2021/06/06 00:07:58;;;;;;;17.60;10.88;;;;;21.20;102225.00;;;;5108354;28;20235;-75
2021/06/06 00:10:24;;;;;;;19.20;11.70;;;;;21.20;102229.00;;;;5108556;28;20716;-75
2021/06/06 00:12:51;;;;;;;15.00;9.95;;;;;21.20;102235.00;;;;5107973;28;20247;-75
2021/06/06 00:15:19;;;;;;;23.17;11.75;;;;;21.20;102231.00;;;;5109069;28;20204;-76
2021/06/06 00:17:46;;;;;;;15.55;10.05;;;;;21.20;102234.00;;;;5108303;28;20222;-76
2021/06/06 00:20:14;;;;;;;25.92;11.13;;;;;21.20;102233.00;;;;5107932;28;20976;-75
2021/06/06 00:22:42;;;;;;;22.63;10.48;;;;;21.20;102235.00;;;;5112356;28;20204;-75
2021/06/06 00:25:12;;;;;;;23.35;11.68;;;;;21.20;102234.00;;;;5112232;28;20201;-75
2021/06/06 00:27:39;;;;;;;20.30;10.15;;;;;21.20;102232.00;;;;5112551;28;20751;-75
2021/06/06 00:30:08;;;;;;;17.20;10.98;;;;;21.20;102237.00;;;;5111689;28;20212;-76
2021/06/06 00:32:36;;;;;;;16.85;10.80;;;;;21.20;102230.00;;;;5112334;28;20201;-75
2021/06/06 00:35:04;;;;;;;17.67;11.30;;;;;21.20;102233.00;;;;5112304;28;20209;-75
2021/06/06 00:37:31;;;;;;;15.35;9.50;;;;;21.20;102240.00;;;;5112462;28;20217;-75
2021/06/06 00:39:57;;;;;;;17.98;9.57;;;;;21.20;102236.00;;;;5112654;28;20210;-75
2021/06/06 00:42:25;;;;;;;17.85;11.35;;;;;21.20;102238.00;;;;5111829;28;20671;-76
2021/06/06 00:44:51;;;;;;;18.33;10.70;;;;;21.20;102240.00;;;;5111316;28;20631;-76
2021/06/06 00:47:18;;;;;;;14.93;9.82;;;;;21.20;102251.00;;;;5112124;28;20208;-75
2021/06/06 00:49:46;;;;;;;18.27;10.65;;;;;21.20;102244.00;;;;5112561;28;20202;-76
2021/06/06 00:52:17;;;;;;;17.75;9.70;;;;;21.10;102245.00;;;;5111246;28;20325;-76
2021/06/06 00:54:47;;;;;;;15.88;10.75;;;;;21.10;102252.00;;;;5112229;28;20602;-76
2021/06/06 00:57:18;;;;;;;18.73;10.82;;;;;21.20;102245.00;;;;5111704;28;20225;-76
2021/06/06 00:59:48;;;;;;;18.45;11.40;;;;;21.10;102252.00;;;;5111554;28;20197;-75
2021/06/06 01:02:15;;;;;;;17.52;10.95;;;;;21.10;102247.00;;;;5111772;28;20193;-76
2021/06/06 01:04:43;;;;;;;15.27;10.02;;;;;21.10;102245.00;;;;5111680;28;20243;-76
2021/06/06 01:07:11;;;;;;;15.15;9.82;;;;;21.10;102248.00;;;;5112115;28;20194;-76
2021/06/06 01:09:38;;;;;;;17.48;10.13;;;;;21.10;102246.00;;;;5112228;28;20189;-76
2021/06/06 01:12:09;;;;;;;16.27;9.57;;;;;21.10;102244.00;;;;5111598;28;20590;-75
2021/06/06 01:14:40;;;;;;;16.02;10.45;;;;;21.10;102242.00;;;;5111406;28;20209;-76
2021/06/06 01:17:11;;;;;;;18.73;10.15;;;;;21.10;102237.00;;;;5110807;28;20224;-76
2021/06/06 01:19:46;;;;;;;18.27;10.82;;;;;21.00;102238.00;;;;5111759;28;20659;-76
2021/06/06 01:22:37;;;;;;;14.55;9.20;;;;;21.00;102242.00;;;;5111001;28;20193;-76
2021/06/06 01:25:10;;;;;;;17.88;10.15;;;;;21.00;102235.00;;;;5110780;28;20228;-76
2021/06/06 01:27:41;;;;;;;14.93;9.38;;;;;21.10;102233.00;;;;5111795;28;20197;-76
2021/06/06 01:30:11;;;;;;;15.95;9.95;;;;;21.10;102227.00;;;;5111345;28;20219;-75
2021/06/06 01:32:42;;;;;;;15.65;9.57;;;;;21.10;102232.00;;;;5109851;28;20619;-76
2021/06/06 01:35:11;;;;;;;16.60;9.95;;;;;21.10;102238.00;;;;5111646;28;20186;-76
2021/06/06 01:37:42;;;;;;;15.52;11.13;;;;;21.10;102226.00;;;;5111174;28;20232;-76
2021/06/06 01:40:16;;;;;;;16.15;10.88;;;;;21.00;102222.00;;;;5110722;28;20259;-76
2021/06/06 01:42:46;;;;;;;19.17;12.07;;;;;21.10;102229.00;;;;5110948;28;20551;-77
2021/06/06 01:45:17;;;;;;;20.13;11.85;;;;;21.10;102233.00;;;;5110837;28;20182;-76
2021/06/06 01:47:47;;;;;;;15.82;10.27;;;;;21.10;102230.00;;;;5110354;28;20197;-77
2021/06/06 01:50:19;;;;;;;18.77;11.70;;;;;21.00;102229.00;;;;5090026;28;20198;-77
2021/06/06 01:52:47;;;;;;;15.25;10.70;;;;;21.00;102230.00;;;;5090135;28;20236;-76
2021/06/06 01:55:19;;;;;;;14.57;11.15;;;;;21.00;102230.00;;;;5090212;28;20202;-77
2021/06/06 01:57:48;;;;;;;13.98;10.18;;;;;21.10;102220.00;;;;5090721;28;20229;-77
2021/06/06 02:00:24;;;;;;;17.00;10.95;;;;;21.00;102213.00;;;;5089904;28;20247;-77
2021/06/06 02:02:50;;;;;;;18.42;12.05;;;;;21.00;102226.00;;;;5089998;28;20201;-76
2021/06/06 02:05:19;;;;;;;20.67;11.38;;;;;21.00;102225.00;;;;5095432;28;20209;-76
2021/06/06 02:07:48;;;;;;;15.50;10.52;;;;;21.00;102222.00;;;;5110952;28;21552;-76
2021/06/06 02:10:24;;;;;;;18.90;11.55;;;;;20.90;102215.00;;;;5110010;28;20220;-76
2021/06/06 02:12:54;;;;;;;15.75;11.57;;;;;21.00;102214.00;;;;5110282;28;20201;-77
2021/06/06 02:15:23;;;;;;;16.45;11.15;;;;;20.90;102220.00;;;;5109843;28;20201;-77
2021/06/06 02:17:51;;;;;;;16.73;10.85;;;;;20.90;102217.00;;;;5110404;28;20225;-77
2021/06/06 02:20:19;;;;;;;18.25;11.70;;;;;20.90;102221.00;;;;5110154;28;20258;-77
2021/06/06 02:22:46;;;;;;;17.20;10.25;;;;;20.90;102219.00;;;;5109140;28;20198;-77
2021/06/06 02:25:15;;;;;;;21.50;11.10;;;;;20.90;102213.00;;;;5110562;28;20606;-77
2021/06/06 02:27:49;;;;;;;19.70;12.07;;;;;20.90;102208.00;;;;5110707;28;20721;-76
2021/06/06 02:30:20;;;;;;;16.92;11.45;;;;;20.90;102210.00;;;;5110129;28;20239;-77
2021/06/06 02:32:55;;;;;;;20.95;12.88;;;;;20.90;102208.00;;;;5110104;28;20194;-76
2021/06/06 02:35:27;;;;;;;21.85;12.52;;;;;20.90;102211.00;;;;5109870;28;20580;-77
2021/06/06 02:37:57;;;;;;;23.17;12.23;;;;;20.90;102204.00;;;;5109328;28;20232;-77
2021/06/06 02:40:29;;;;;;;21.67;13.05;;;;;20.90;102203.00;;;;5109436;28;20766;-77
2021/06/06 02:43:01;;;;;;;18.88;12.02;;;;;20.80;102209.00;;;;5109930;28;20205;-76
2021/06/06 02:45:30;;;;;;;19.38;11.90;;;;;20.90;102210.00;;;;5110036;28;20247;-77
2021/06/06 02:48:03;;;;;;;21.67;13.13;;;;;20.80;102214.00;;;;5109754;28;20202;-77
2021/06/06 02:50:34;;;;;;;24.40;13.82;;;;;20.80;102211.00;;;;5109058;28;20671;-76
2021/06/06 02:53:04;;;;;;;20.02;12.98;;;;;20.80;102213.00;;;;5109890;28;20197;-77
2021/06/06 02:55:34;;;;;;;23.77;13.20;;;;;20.80;102213.00;;;;5109512;28;20578;-77
2021/06/06 02:58:07;;;;;;;27.45;13.43;;;;;20.80;102211.00;;;;5109473;28;20236;-76
2021/06/06 03:00:41;;;;;;;21.85;12.25;;;;;20.80;102206.00;;;;5105268;28;20194;-77
2021/06/06 03:03:12;;;;;;;21.92;12.40;;;;;20.80;102209.00;;;;5109196;28;20202;-77
2021/06/06 03:05:39;;;;;;;26.98;13.40;;;;;20.90;102213.00;;;;5110260;28;20198;-77
2021/06/06 03:08:10;;;;;;;21.42;13.43;;;;;20.80;102206.00;;;;5109653;28;20212;-76
2021/06/06 03:10:40;;;;;;;21.80;12.45;;;;;20.80;102213.00;;;;5109360;28;20193;-76
2021/06/06 03:13:13;;;;;;;22.52;12.82;;;;;20.80;102213.00;;;;5108787;28;20205;-76
2021/06/06 03:15:45;;;;;;;21.48;12.48;;;;;20.80;102214.00;;;;5109859;28;20372;-77
2021/06/06 03:18:14;;;;;;;22.63;12.13;;;;;20.90;102218.00;;;;5109268;28;20225;-76
2021/06/06 03:20:43;;;;;;;24.55;12.65;;;;;20.90;102210.00;;;;5108700;28;20193;-76
2021/06/06 03:23:13;;;;;;;23.45;12.82;;;;;20.90;102211.00;;;;5109342;28;20244;-76
2021/06/06 03:25:44;;;;;;;24.60;13.18;;;;;20.90;102210.00;;;;5109436;28;20369;-77
2021/06/06 03:28:14;;;;;;;23.23;12.55;;;;;20.90;102213.00;;;;5109478;28;20678;-76
2021/06/06 03:30:44;;;;;;;28.02;12.68;;;;;20.90;102214.00;;;;5108911;28;20237;-76
2021/06/06 03:33:13;;;;;;;22.00;11.98;;;;;20.90;102219.00;;;;5109020;28;20193;-76
2021/06/06 03:35:40;;;;;;;23.40;14.15;;;;;20.90;102220.00;;;;5109302;28;20194;-77
2021/06/06 03:38:08;;;;;;;23.30;12.60;;;;;20.90;102217.00;;;;5108880;28;20806;-76
2021/06/06 03:40:38;;;;;;;22.20;13.07;;;;;20.90;102218.00;;;;5108684;28;20222;-77
2021/06/06 03:43:05;;;;;;;21.33;10.55;;;;;20.90;102220.00;;;;5108896;28;20247;-77
2021/06/06 03:45:34;;;;;;;19.90;11.98;;;;;20.90;102225.00;;;;5109258;28;20201;-76
2021/06/06 03:48:00;;;;;;;22.83;11.68;;;;;20.90;102220.00;;;;5108861;28;20209;-77
2021/06/06 03:50:36;;;;;;;21.63;11.68;;;;;20.80;102216.00;;;;5108842;28;20209;-76
2021/06/06 03:53:03;;;;;;;22.25;12.40;;;;;20.90;102218.00;;;;5109111;28;20205;-77
2021/06/06 03:55:30;;;;;;;20.08;11.27;;;;;20.90;102222.00;;;;5108482;28;20206;-76
2021/06/06 03:57:57;;;;;;;17.83;10.73;;;;;20.90;102222.00;;;;5109193;28;20687;-76
2021/06/06 04:00:27;;;;;;;17.55;10.63;;;;;20.90;102224.00;;;;5100931;28;20209;-76
2021/06/06 04:02:56;;;;;;;18.17;9.52;;;;;20.80;102230.00;;;;5088805;28;20213;-77
2021/06/06 04:05:22;;;;;;;16.98;9.35;;;;;20.90;102224.00;;;;5104453;28;20198;-76
2021/06/06 04:07:49;;;;;;;18.02;10.25;;;;;20.90;102229.00;;;;5108834;28;20213;-76
2021/06/06 04:10:17;;;;;;;20.23;10.05;;;;;20.90;102227.00;;;;5108469;28;20214;-77
2021/06/06 04:12:43;;;;;;;19.98;9.98;;;;;20.90;102222.00;;;;5109476;28;20621;-77
2021/06/06 04:15:12;;;;;;;21.13;9.13;;;;;20.90;102225.00;;;;5108741;28;20193;-77
2021/06/06 04:17:39;;;;;;;17.77;8.93;;;;;20.90;102217.00;;;;5108984;28;20225;-77
2021/06/06 04:20:10;;;;;;;12.73;7.43;;;;;20.90;102224.00;;;;5108772;28;20201;-77
2021/06/06 04:22:37;;;;;;;11.85;7.43;;;;;20.90;102220.00;;;;5107691;28;20254;-77
2021/06/06 04:25:06;;;;;;;15.63;8.55;;;;;20.90;102216.00;;;;5108892;28;20216;-76
2021/06/06 04:27:32;;;;;;;14.30;8.20;;;;;20.90;102219.00;;;;5108353;28;20212;-76
2021/06/06 04:29:59;;;;;;;12.98;7.35;;;;;20.90;102219.00;;;;5108246;28;20701;-76
2021/06/06 04:32:26;;;;;;;12.90;8.30;;;;;21.00;102220.00;;;;5108483;28;20201;-76
2021/06/06 04:34:53;;;;;;;12.05;6.93;;;;;21.00;102226.00;;;;5108303;28;20283;-76
2021/06/06 04:37:21;;;;;;;14.63;7.18;;;;;21.00;102220.00;;;;5108594;28;20201;-76
2021/06/06 04:39:48;;;;;;;9.45;6.90;;;;;21.00;102221.00;;;;5108346;28;20221;-76
2021/06/06 04:42:18;;;;;;;9.48;6.68;;;;;21.00;102216.00;;;;5108164;28;20675;-76
2021/06/06 04:44:45;;;;;;;9.77;6.35;;;;;21.00;102215.00;;;;5107861;28;20297;-77
2021/06/06 04:47:12;;;;;;;11.60;7.03;;;;;21.00;102225.00;;;;5108424;28;20205;-77
2021/06/06 04:49:40;;;;;;;9.68;7.03;;;;;21.00;102220.00;;;;5108569;28;20205;-76
2021/06/06 04:52:09;;;;;;;9.95;5.55;;;;;21.00;102217.00;;;;5108062;28;20197;-77
2021/06/06 04:54:38;;;;;;;8.32;5.80;;;;;21.00;102223.00;;;;5108254;28;20665;-77
2021/06/06 04:57:06;;;;;;;8.25;5.47;;;;;21.10;102223.00;;;;5108087;28;20197;-76
2021/06/06 04:59:35;;;;;;;9.05;5.97;;;;;21.10;102229.00;;;;5104266;28;20230;-76
2021/06/06 05:02:03;;;;;;;9.13;5.85;;;;;21.10;102240.00;;;;5107254;28;20205;-76
2021/06/06 05:04:30;;;;;;;7.30;4.85;;;;;21.10;102239.00;;;;5108132;28;20778;-76
2021/06/06 05:06:56;;;;;;;9.45;4.95;;;;;21.10;102237.00;;;;5108417;28;20208;-77
2021/06/06 05:09:23;;;;;;;7.95;5.10;;;;;21.10;102236.00;;;;5111152;28;20675;-76
2021/06/06 05:11:51;;;;;;;6.32;4.70;;;;;21.10;102237.00;;;;5111965;28;20204;-76
2021/06/06 05:14:18;;;;;;;6.50;4.25;;;;;21.10;102238.00;;;;5111756;28;20244;-76
2021/06/06 05:16:45;;;;;;;8.80;4.78;;;;;21.10;102244.00;;;;5111540;28;20250;-77
2021/06/06 05:19:12;;;;;;;5.45;4.90;;;;;21.10;102249.00;;;;5111689;28;20699;-76
2021/06/06 05:21:39;;;;;;;6.30;4.72;;;;;21.10;102235.00;;;;5111252;28;20202;-77
2021/06/06 05:24:07;;;;;;;6.40;4.20;;;;;21.20;102240.00;;;;5111649;28;20216;-76
2021/06/06 05:26:35;;;;;;;6.28;4.20;;;;;21.20;102242.00;;;;5111093;28;20197;-77
2021/06/06 05:29:05;;;;;;;8.10;4.70;;;;;21.20;102234.00;;;;5111659;28;20247;-77
2021/06/06 05:31:32;;;;;;;5.68;4.45;;;;;21.20;102229.00;;;;5110773;28;20530;-77
2021/06/06 05:33:58;;;;;;;6.15;4.15;;;;;21.20;102237.00;;;;5111218;28;20701;-76
2021/06/06 05:36:25;;;;;;;6.28;4.72;;;;;21.20;102237.00;;;;5111042;28;20208;-76
2021/06/06 05:38:52;;;;;;;6.95;4.53;;;;;21.20;102244.00;;;;5111872;28;20234;-77
2021/06/06 05:41:19;;;;;;;6.53;4.38;;;;;21.20;102237.00;;;;5110712;28;20209;-77
2021/06/06 05:43:46;;;;;;;5.65;4.05;;;;;21.20;102233.00;;;;5110549;28;20209;-77
2021/06/06 05:46:18;;;;;;;4.57;3.88;;;;;21.20;102231.00;;;;5110938;28;20201;-77
2021/06/06 05:48:44;;;;;;;5.45;4.32;;;;;21.20;102236.00;;;;5110603;28;20247;-76
2021/06/06 05:51:11;;;;;;;5.03;3.67;;;;;21.20;102242.00;;;;5111049;28;20201;-76
2021/06/06 05:53:38;;;;;;;5.95;4.45;;;;;21.20;102236.00;;;;5110914;28;20209;-76
2021/06/06 05:56:06;;;;;;;6.85;4.35;;;;;21.20;102238.00;;;;5110797;28;20667;-77
2021/06/06 05:58:34;;;;;;;5.15;4.07;;;;;21.20;102240.00;;;;5110991;28;20225;-77
2021/06/06 06:01:01;;;;;;;5.85;4.38;;;;;21.20;102246.00;;;;5103056;28;20252;-77
2021/06/06 06:03:29;;;;;;;6.13;4.13;;;;;21.20;102242.00;;;;5104543;28;20686;-77
2021/06/06 06:05:56;;;;;;;4.80;3.83;;;;;21.30;102246.00;;;;5110035;28;20216;-76
2021/06/06 06:08:25;;;;;;;5.40;4.47;;;;;21.30;102251.00;;;;5110069;28;20690;-77
2021/06/06 06:10:54;;;;;;;6.82;4.68;;;;;21.30;102256.00;;;;5110118;28;20186;-77
2021/06/06 06:13:22;;;;;;;5.18;4.43;;;;;21.30;102249.00;;;;5109915;28;20197;-76
2021/06/06 06:15:50;;;;;;;5.50;3.85;;;;;21.40;102251.00;;;;5109364;28;20197;-76
2021/06/06 06:18:18;;;;;;;6.68;4.63;;;;;21.40;102253.00;;;;5109429;28;20255;-76
2021/06/06 06:20:47;;;;;;;6.95;4.35;;;;;21.40;102250.00;;;;5110093;28;20193;-77
2021/06/06 06:23:14;;;;;;;4.47;4.07;;;;;21.40;102257.00;;;;5110677;28;20186;-77
2021/06/06 06:25:40;;;;;;;5.70;4.43;;;;;21.40;102250.00;;;;5110334;28;20190;-76
2021/06/06 06:28:08;;;;;;;4.97;4.05;;;;;21.40;102249.00;;;;5110019;28;20250;-76
2021/06/06 06:30:36;;;;;;;5.78;4.57;;;;;21.40;102251.00;;;;5109896;28;20230;-76
2021/06/06 06:33:04;;;;;;;4.97;3.97;;;;;21.50;102258.00;;;;5110607;28;20201;-77
2021/06/06 06:35:31;;;;;;;5.55;4.13;;;;;21.50;102260.00;;;;5110006;28;20649;-76
2021/06/06 06:37:59;;;;;;;4.53;4.05;;;;;21.50;102265.00;;;;5110604;28;20221;-76
2021/06/06 06:40:27;;;;;;;5.78;4.88;;;;;21.50;102266.00;;;;5109917;28;20295;-77
2021/06/06 06:42:55;;;;;;;7.10;4.80;;;;;21.60;102273.00;;;;5109893;28;20232;-75
2021/06/06 06:45:25;;;;;;;5.57;4.45;;;;;21.60;102269.00;;;;5109704;28;20746;-77
2021/06/06 06:47:56;;;;;;;6.00;4.65;;;;;21.60;102263.00;;;;5109884;28;20594;-76
2021/06/06 06:50:23;;;;;;;6.40;4.93;;;;;21.60;102262.00;;;;5109860;28;20197;-77
2021/06/06 06:52:50;;;;;;;5.13;4.18;;;;;21.60;102259.00;;;;5109274;28;20201;-76
2021/06/06 06:55:20;;;;;;;6.03;4.60;;;;;21.60;102264.00;;;;5109574;28;20255;-76
2021/06/06 06:57:47;;;;;;;5.68;4.70;;;;;21.60;102266.00;;;;5109520;28;20683;-77
2021/06/06 07:00:18;;;;;;;6.82;5.18;;;;;21.60;102261.00;;;;5109607;28;20255;-73
2021/06/06 07:02:45;;;;;;;6.32;4.38;;;;;21.70;102258.00;;;;5109420;28;20217;-77
2021/06/06 07:05:13;;;;;;;7.28;5.00;;;;;21.70;102266.00;;;;5109615;28;20209;-77
2021/06/06 07:07:40;;;;;;;6.78;4.68;;;;;21.80;102264.00;;;;5109884;28;20213;-76
2021/06/06 07:10:11;;;;;;;5.47;4.43;;;;;21.80;102255.00;;;;5109909;28;20559;-76
2021/06/06 07:12:39;;;;;;;6.25;4.82;;;;;21.90;102261.00;;;;5109507;28;20202;-76
2021/06/06 07:15:08;;;;;;;7.10;5.15;;;;;22.00;102261.00;;;;5109515;28;20198;-77
2021/06/06 07:17:35;;;;;;;6.75;5.32;;;;;22.10;102257.00;;;;5109574;28;20242;-77
2021/06/06 07:20:06;;;;;;;5.25;4.47;;;;;22.10;102265.00;;;;5108868;28;20194;-75
2021/06/06 07:22:33;;;;;;;5.32;4.30;;;;;22.20;102257.00;;;;5109036;28;20201;-76
2021/06/06 07:25:00;;;;;;;8.38;4.72;;;;;22.20;102258.00;;;;5109071;28;20211;-77
2021/06/06 07:27:27;;;;;;;4.25;3.85;;;;;22.20;102266.00;;;;5109172;28;20197;-77
2021/06/06 07:29:55;;;;;;;6.07;4.68;;;;;22.20;102260.00;;;;5108772;28;20198;-77
2021/06/06 07:32:23;;;;;;;4.47;4.03;;;;;22.30;102271.00;;;;5108379;28;20222;-76
2021/06/06 07:34:51;;;;;;;4.80;3.42;;;;;22.40;102269.00;;;;5109032;28;20205;-77
2021/06/06 07:37:19;;;;;;;4.80;4.28;;;;;22.50;102269.00;;;;5109070;28;20193;-77
2021/06/06 07:39:46;;;;;;;4.40;3.95;;;;;22.60;102270.00;;;;5108905;28;20320;-76
2021/06/06 07:42:14;;;;;;;4.55;4.15;;;;;22.70;102272.00;;;;5108470;28;20716;-76
2021/06/06 07:44:41;;;;;;;5.20;3.70;;;;;22.70;102265.00;;;;5109053;28;20206;-77
2021/06/06 07:47:10;;;;;;;4.40;4.00;;;;;22.70;102276.00;;;;5108472;28;20575;-76
2021/06/06 07:49:38;;;;;;;7.93;4.00;;;;;22.80;102266.00;;;;5108626;28;20201;-77
2021/06/06 07:52:07;;;;;;;4.47;3.88;;;;;22.80;102266.00;;;;5108344;28;20193;-77
2021/06/06 07:54:34;;;;;;;3.75;2.83;;;;;22.80;102275.00;;;;5108550;28;20197;-76
2021/06/06 07:57:02;;;;;;;4.22;3.83;;;;;22.90;102273.00;;;;5108560;28;20196;-77
2021/06/06 07:59:29;;;;;;;4.25;3.78;;;;;22.90;102266.00;;;;5108561;28;20221;-77
2021/06/06 08:01:56;;;;;;;4.28;3.15;;;;;22.90;102265.00;;;;5093167;28;20201;-77
2021/06/06 08:04:24;;;;;;;4.97;3.75;;;;;23.00;102261.00;;;;5108018;28;20201;-77
2021/06/06 08:06:51;;;;;;;4.25;3.65;;;;;23.10;102264.00;;;;5107771;28;20201;-77
2021/06/06 08:09:18;;;;;;;5.55;3.28;;;;;23.20;102257.00;;;;5108817;28;20201;-77
2021/06/06 08:11:44;;;;;;;8.15;4.03;;;;;23.40;102260.00;;;;5108431;28;20201;-76
2021/06/06 08:14:11;;;;;;;3.35;2.97;;;;;23.50;102271.00;;;;5108600;28;20204;-76
2021/06/06 08:16:38;;;;;;;3.22;2.90;;;;;23.60;102263.00;;;;5108487;28;20671;-77
2021/06/06 08:19:05;;;;;;;3.20;2.90;;;;;23.60;102271.00;;;;5108136;28;20229;-76
2021/06/06 08:21:38;;;;;;;4.63;3.55;;;;;23.70;102271.00;;;;5108497;28;20209;-77
2021/06/06 08:24:07;;;;;;;3.08;2.70;;;;;23.70;102272.00;;;;5108659;28;20212;-76
2021/06/06 08:26:34;;;;;;;3.22;2.60;;;;;23.70;102284.00;;;;5108475;28;20616;-77
2021/06/06 08:29:01;;;;;;;4.88;2.90;;;;;23.70;102283.00;;;;5108798;28;20572;-77
2021/06/06 08:31:30;;;;;;;3.33;2.63;;;;;23.80;102288.00;;;;5107794;28;20663;-77
2021/06/06 08:33:58;;;;;;;3.42;2.20;;;;;23.90;102281.00;;;;5108324;28;20201;-76
2021/06/06 08:36:27;;;;;;;4.10;2.50;;;;;24.00;102284.00;;;;5108521;28;20573;-76
2021/06/06 08:38:57;;;;;;;3.17;2.50;;;;;24.20;102290.00;;;;5108637;28;20259;-76
2021/06/06 08:41:32;;;;;;;2.42;2.15;;;;;24.30;102279.00;;;;5108566;28;20201;-77
2021/06/06 08:44:04;;;;;;;2.35;2.15;;;;;24.40;102280.00;;;;5111639;28;20254;-76
2021/06/06 08:46:34;;;;;;;3.13;2.28;;;;;24.40;102284.00;;;;5112178;28;20197;-77
2021/06/06 08:49:03;;;;;;;2.80;2.08;;;;;24.60;102284.00;;;;5112785;28;20202;-76
2021/06/06 08:51:43;;;;;;;3.97;2.42;;;;;24.60;102287.00;;;;5111692;28;20233;-77
2021/06/06 08:54:23;;;;;;;2.42;1.85;;;;;24.60;102284.00;;;;5112111;28;20266;-77
2021/06/06 08:56:54;;;;;;;2.17;1.92;;;;;24.60;102278.00;;;;5111399;28;20682;-77
2021/06/06 08:59:27;;;;;;;2.28;1.95;;;;;24.70;102272.00;;;;5111395;28;20267;-76
2021/06/06 09:01:56;;;;;;;2.60;1.75;;;;;24.70;102280.00;;;;5107465;28;20720;-77
2021/06/06 09:04:25;;;;;;;3.83;1.88;;;;;24.80;102275.00;;;;5091669;28;20663;-77
2021/06/06 09:06:54;;;;;;;2.35;1.75;;;;;24.80;102287.00;;;;5091603;28;20194;-76
2021/06/06 09:09:27;;;;;;;1.95;1.60;;;;;24.90;102284.00;;;;5091032;28;20194;-77
2021/06/06 09:11:58;;;;;;;1.70;1.60;;;;;24.90;102279.00;;;;5110206;28;20205;-77
2021/06/06 09:14:25;;;;;;;1.80;1.70;;;;;25.10;102276.00;;;;5112150;28;20297;-77
2021/06/06 09:16:58;;;;;;;1.60;1.50;;;;;25.10;102283.00;;;;5111593;28;20201;-77
2021/06/06 09:19:26;;;;;;;2.00;1.80;;;;;25.30;102286.00;;;;5112032;28;20582;-77
2021/06/06 09:21:57;;;;;;;2.90;1.88;;;;;25.40;102282.00;;;;5111289;28;20197;-77
2021/06/06 09:24:34;;;;;;;2.30;1.73;;;;;25.60;102281.00;;;;5111226;28;20202;-76
2021/06/06 09:27:17;;;;;;;2.15;1.65;;;;;25.70;102288.00;;;;5111679;28;20209;-77
2021/06/06 09:29:44;;;;;;;2.53;1.45;;;;;25.90;102288.00;;;;5112076;28;20205;-77
2021/06/06 09:32:14;;;;;;;2.42;1.88;;;;;26.00;102284.00;;;;5111431;28;20601;-77
2021/06/06 09:34:53;;;;;;;3.00;1.73;;;;;26.00;102293.00;;;;5111805;28;20197;-76
2021/06/06 09:37:22;;;;;;;2.08;1.75;;;;;26.20;102285.00;;;;5111074;28;20201;-77
2021/06/06 09:39:57;;;;;;;1.83;1.65;;;;;26.30;102293.00;;;;5111701;28;20229;-77
2021/06/06 09:42:30;;;;;;;2.42;1.60;;;;;26.40;102287.00;;;;5111580;28;20201;-77
2021/06/06 09:45:12;;;;;;;2.00;1.48;;;;;26.60;102288.00;;;;5110972;28;20202;-77
2021/06/06 09:47:40;;;;;;;1.95;1.42;;;;;26.80;102289.00;;;;5111233;28;20197;-77
2021/06/06 09:50:11;;;;;;;1.95;1.42;;;;;26.90;102278.00;;;;5111382;28;20193;-77
2021/06/06 09:52:46;;;;;;;4.20;1.70;;;;;27.00;102285.00;;;;5111046;28;20698;-77
2021/06/06 09:55:22;;;;;;;1.55;1.45;;;;;27.00;102287.00;;;;5110337;28;20193;-77
2021/06/06 09:57:51;;;;;;;2.83;1.90;;;;;27.10;102294.00;;;;5110952;28;20644;-77
2021/06/06 10:00:29;;;;;;;1.60;1.42;;;;;27.00;102298.00;;;;5108647;28;20190;-77
2021/06/06 10:02:58;;;;;;;1.45;1.20;;;;;27.10;102302.00;;;;5108730;28;20197;-77
2021/06/06 10:05:29;;;;;;;4.03;1.65;;;;;27.20;102306.00;;;;5111123;28;20197;-77
2021/06/06 10:07:59;;;;;;;1.90;1.27;;;;;27.20;102305.00;;;;5111159;28;20206;-77
2021/06/06 10:10:33;;;;;;;2.75;1.63;;;;;27.20;102303.00;;;;5110152;28;20204;-77
2021/06/06 10:13:03;;;;;;;2.08;1.10;;;;;27.20;102299.00;;;;5110554;28;20231;-77
2021/06/06 10:15:41;;;;;;;2.20;1.48;;;;;27.20;102301.00;;;;5110598;28;20202;-77
2021/06/06 10:18:13;;;;;;;2.75;1.98;;;;;27.20;102307.00;;;;5110322;27;20250;-77
2021/06/06 10:20:44;;;;;;;2.80;1.67;;;;;27.10;102309.00;;;;5110703;28;20209;-76
2021/06/06 10:23:16;;;;;;;1.88;1.52;;;;;27.10;102304.00;;;;5109993;28;20663;-77
2021/06/06 10:25:49;;;;;;;3.25;1.75;;;;;27.00;102312.00;;;;5110643;28;20201;-77
2021/06/06 10:28:21;;;;;;;2.38;1.48;;;;;27.10;102309.00;;;;5110478;28;20209;-77
2021/06/06 10:30:53;;;;;;;2.15;1.70;;;;;27.30;102310.00;;;;5110479;28;20229;-77
2021/06/06 10:33:25;;;;;;;1.55;1.45;;;;;27.40;102310.00;;;;5109313;28;20663;-77
2021/06/06 10:35:52;;;;;;;1.75;1.30;;;;;27.40;102304.00;;;;5110112;28;20197;-77
2021/06/06 10:38:20;;;;;;;1.27;1.17;;;;;27.50;102313.00;;;;5109804;28;20218;-76
2021/06/06 10:40:51;;;;;;;3.63;1.60;;;;;27.40;102310.00;;;;5110890;28;20214;-77
2021/06/06 10:43:30;;;;;;;2.97;1.40;;;;;27.30;102306.00;;;;5109791;28;20202;-77
2021/06/06 10:46:08;;;;;;;2.10;1.27;;;;;27.30;102319.00;;;;5110062;28;20198;-77
2021/06/06 10:48:41;;;;;;;1.90;1.65;;;;;27.30;102312.00;;;;5110070;28;20586;-77
2021/06/06 10:51:11;;;;;;;7.13;2.45;;;;;27.30;102313.00;;;;5107911;28;21516;-76
2021/06/06 10:53:38;;;;;;;2.40;1.70;;;;;27.30;102314.00;;;;5099723;28;20207;-76
2021/06/06 10:56:10;;;;;;;1.77;1.52;;;;;27.20;102318.00;;;;5093156;28;20205;-76
2021/06/06 10:58:45;;;;;;;1.40;1.20;;;;;27.20;102321.00;;;;5100312;28;20821;-74
2021/06/06 11:01:25;;;;;;;2.45;1.42;;;;;27.00;102317.00;;;;5100710;27;20190;-76
2021/06/06 11:04:05;;;;;;;3.35;1.10;;;;;27.10;102312.00;;;;5098904;28;20190;-75
2021/06/06 11:06:34;;;;;;;2.45;1.50;;;;;27.10;102312.00;;;;5095712;28;20193;-74
2021/06/06 11:09:03;;;;;;;1.88;1.23;;;;;27.20;102308.00;;;;5096195;28;20193;-74
2021/06/06 11:11:32;;;;;;;1.80;1.33;;;;;27.20;102305.00;;;;5095830;28;20747;-74
2021/06/06 11:14:14;;;;;;;1.38;1.27;;;;;27.30;102303.00;;;;5094994;28;20283;-74
2021/06/06 11:16:47;;;;;;;2.05;1.23;;;;;27.30;102291.00;;;;5095482;28;20205;-74
2021/06/06 11:19:28;;;;;;;1.20;1.02;;;;;27.30;102298.00;;;;5096345;28;20213;-74
2021/06/06 11:22:09;;;;;;;3.28;1.50;;;;;27.40;102300.00;;;;5100722;28;20208;-76
2021/06/06 11:24:47;;;;;;;2.13;1.20;;;;;27.40;102295.00;;;;5098339;28;20201;-74
2021/06/06 11:27:25;;;;;;;1.58;1.10;;;;;27.50;102293.00;;;;5104711;28;20449;-74
2021/06/06 11:29:55;;;;;;;1.20;0.98;;;;;27.60;102293.00;;;;5097209;28;20293;-74
2021/06/06 11:32:27;;;;;;;2.33;0.88;;;;;27.60;102292.00;;;;5097937;28;20236;-74
2021/06/06 11:35:28;;;;;;;0.82;0.77;;;;;27.50;102292.00;;;;5095738;28;20225;-74
2021/06/06 11:37:58;;;;;;;0.70;0.60;;;;;27.60;102296.00;;;;5080361;28;20225;-74
2021/06/06 11:40:38;;;;;;;1.02;0.60;;;;;27.50;102293.00;;;;5090335;28;20580;-74
2021/06/06 11:43:22;;;;;;;1.63;1.08;;;;;27.50;102288.00;;;;5096209;28;20198;-74
2021/06/06 11:45:52;;;;;;;0.65;0.40;;;;;27.50;102289.00;;;;5093595;28;20566;-75
2021/06/06 11:48:29;;;;;;;0.98;0.60;;;;;27.50;102294.00;;;;5093981;28;20194;-74
2021/06/06 11:50:58;;;;;;;0.63;0.40;;;;;27.50;102304.00;;;;5093373;28;20748;-74
2021/06/06 11:53:29;;;;;;;2.83;0.50;;;;;27.50;102300.00;;;;5095154;28;20197;-75
2021/06/06 11:56:09;;;;;;;0.90;0.52;;;;;27.30;102286.00;;;;5094982;28;20194;-74
2021/06/06 11:58:41;;;;;;;0.60;0.52;;;;;27.40;102295.00;;;;5096838;28;20245;-74
2021/06/06 12:01:12;;;;;;;1.58;0.63;;;;;27.40;102287.00;;;;5095012;28;20202;-74
2021/06/06 12:03:41;;;;;;;0.43;0.40;;;;;27.40;102279.00;;;;5094078;28;20202;-74
2021/06/06 12:06:12;;;;;;;0.75;0.50;;;;;27.50;102278.00;;;;5097119;28;20202;-76
2021/06/06 12:08:41;;;;;;;1.20;0.70;;;;;27.50;102277.00;;;;5096982;28;20204;-76
2021/06/06 12:11:21;;;;;;;1.13;0.52;;;;;27.50;102290.00;;;;5095069;28;20198;-74
2021/06/06 12:13:51;;;;;;;1.73;0.73;;;;;27.50;102278.00;;;;5095585;28;20200;-75